Tiempo atmosférico en la estación meteorológica de Salamanca, Salamanca (775 m.)



Fecha
DESCASC
Temp. máxima en grados centígrados (hora)
DESCASC
Temp. mínima en grados centígrados (hora)
DESCASC
Temp. media en grados centígrados
DESCASC
Racha de viento máxima en m/sg (hora)
DESCASC
Velocidad máxima media en intervalos de 10 minutos(hora)
DESCASC
Precipitaciones diarias en mm
DESCASC
Precipitaciones de 00:00 a 06:00 en mm
DESCASC
Precipitaciones de 06:00 a 12:00 en mm
DESCASC
Precipitaciones de 12:00 a 18:00 en mm
DESCASC
Precipitaciones de 18:00 a 24:00 en mm
DESCASC
26-03-2020 16.9 (17:10) 1.2 (07:30) 9 7.22 (23:10) 3.61 (23:10) 0 0 0 0 0
25-03-2020 18.7 (15:10) 3.8 (07:30) 11.3 7.78 (12:30) 3.06 (22:40) 2.9 0 0 2.9 0
24-03-2020 17.5 (13:40) 4.2 (07:40) 10.8 8.89 (11:50) 4.17 (11:50) 0 0 0 0 0
23-03-2020 16.3 (15:30) 3.8 (07:40) 10 9.72 (16:30) 5 (16:20) 0.2 0 0 0.2 0
22-03-2020 14.9 (17:30) 6.4 (00:50) 10.6 7.5 (19:10) 3.06 (19:20) 0.6 0 0.1 0 0.5
21-03-2020 10.5 (14:30) 7.2 (00:00) 8.8 6.94 (00:30) 3.61 (04:00) 3.4 0 1.8 1.6 0
20-03-2020 13.3 (11:50) 8 (00:00) 10.7 6.94 (14:10) 4.17 (14:10) 0.1 0 0 0.1 0
19-03-2020 15.7 (14:10) 6.8 (00:00) 11.3 4.72 (17:30) 1.94 (17:40) 0 0 0 0 0
18-03-2020 17.6 (16:20) 6 (00:00) 11.8 7.5 (15:40) 3.61 (15:20) 0 0 0 0 0
17-03-2020 16.1 (18:10) 3.9 (00:00) 10 8.89 (17:00) 4.17 (17:20) 1.1 1.1 0 0 0
16-03-2020 5.9 (18:50) 1.1 (00:00) 3.5 13.33 (20:40) 5.56 (19:10) 15.7 2.7 6 4.9 2.1
15-03-2020 18.1 (14:40) 1.3 (00:00) 9.7 12.22 (15:10) 6.67 (15:30) 0.2 0 0 0 0.2
14-03-2020 20.1 (17:20) 2.5 (00:00) 11.3 5.28 (13:20) 2.5 (12:00) 0 0 0 0 0
13-03-2020 17.4 (15:20) 7.8 (07:10) 12.6 7.5 (09:50) 3.33 (10:00) 0 0 0 0 0
12-03-2020 24.5 (13:10) 9 (00:00) 16.8 8.61 (13:20) 4.17 (13:20) 0 0 0 0 0
11-03-2020 25.8 (16:00) 5.7 (00:00) 15.7 6.39 (15:20) 2.78 (16:50) 0 0 0 0 0
10-03-2020 23.6 (16:40) 4 (00:00) 13.8 6.94 (15:50) 3.61 (16:20) 0 0 0 0 0
09-03-2020 16.1 (16:20) 4.3 (00:00) 10.2 6.11 (00:10) 3.06 (00:50) 0 0 0 0 0
08-03-2020 12.6 (16:40) 1.5 (00:00) 7.1 8.33 (17:00) 3.89 (17:00) 0 0 0 0 0
07-03-2020 15.8 (17:10) 2.7 (00:00) 9.3 5 (01:20) 2.78 (18:00) 0 0 0 0 0
06-03-2020 11.2 (16:40) 4.7 (00:00) 7.9 12.5 (03:50) 5.83 (03:50) 0.2 0 0.2 0 0
05-03-2020 12.9 (16:10) 5.4 (00:00) 9.1 15.83 (13:40) 6.67 (08:20) 4.3 0 3 0.4 0.9
04-03-2020 15.2 (16:30) 9.8 (08:10) 12.5 11.11 (17:50) 4.17 (18:20) 0.6 0.6 0 0 0
03-03-2020 15 (16:10) 4.1 (00:00) 9.5 14.17 (05:50) 6.11 (07:00) 0 0 0 0 0
02-03-2020 12 (00:40) 4.1 (00:00) 8 20.83 (01:40) 10 (00:40) 5.6 2.5 2 1.1 0
01-03-2020 16.4 (15:40) 7.3 (00:00) 11.8 19.17 (23:50) 10.28 (23:50) 3.5 0 0 0 3.5
29-02-2020 13.3 (16:10) 6 (00:00) 9.7 15.83 (15:20) 7.5 (15:10) 0.1 0 0 0.1 0
28-02-2020 19.9 (14:50) 1.7 (00:00) 10.8 8.61 (17:40) 5 (17:40) 0 0 0 0 0

Gráficas

Temp. máximas Temp. mínimas Temp. medias Precipitaciones Rachas de viento máximas Velocidades máximas media en intervalos de 10 minutos

Datos horarios

Fecha y hora oficial Temperatura (ºC) Velocidad del viento (km/h) Dirección del viento Racha (km/h) Dirección de racha Precipitación (mm) Presión (hPa) Tendencia (hPa) Humedad (%)
2020-03-28 23:00:00 8 0 Calma 3 Este 0 930.9 1.5 72
2020-03-28 22:00:00 9.5 0 Calma 7 Este 0 930.6 1.6 58
2020-03-28 21:00:00 11.5 3 Este 8 Nordeste 0 930 1.5 45
2020-03-28 20:00:00 13.6 3 Noroeste 10 Nordeste 0 929.4 1.1 38
2020-03-28 19:00:00 14.5 5 Nordeste 15 Nordeste 0 929 0.6 37
2020-03-28 18:00:00 14.7 3 Noroeste 15 Este 0 928.5 -0.2 36
2020-03-28 17:00:00 16.8 4 Nordeste 19 Nordeste 0 928.3 -0.9 33
2020-03-28 16:00:00 16.1 8 Nordeste 18 Este 0 928.4 -1.2 33
2020-03-28 15:00:00 15.7 7 Nordeste 26 Nordeste 0 928.7 -1.2 35
2020-03-28 14:00:00 15.3 6 Nordeste 22 Este 0 929.2 -0.7 36
2020-03-28 13:00:00 14.1 7 Nordeste 28 Este 0 929.6 -0.4 39
2020-03-28 12:00:00 12.9 12 Nordeste 29 Nordeste 0 929.9 0.6 43
2020-03-28 11:00:00 11.1 12 Nordeste 23 Nordeste 0 929.9 0.9 49
2020-03-28 10:00:00 8.8 6 Este 13 Nordeste 0 930 1.6 63
2020-03-28 09:00:00 5.2 4 Este 8 Sudeste 0 929.3 1.3 77
2020-03-28 08:00:00 1.1 0 Calma 0 Calma 0 929 1.2 91
2020-03-28 07:00:00 0.8 0 Calma 6 Este 0 928.4 0.6 91
2020-03-28 06:00:00 1 3 Este 7 Este 0 928 0.3 90
2020-03-28 05:00:00 1.2 4 Este 8 Este 0 927.8 0.2 88
2020-03-28 04:00:00 1.9 4 Este 6 Este 0 927.8 0.6 87
2020-03-28 03:00:00 2.5 0 Calma 4 Este 0 927.7 0.7 84
2020-03-28 02:00:00 3.4 0 Calma 4 Sudeste 0 927.6 1 84
2020-03-28 01:00:00 4.1 3 Sudeste 5 Este 0 927.2 1 78
2020-03-28 00:00:00 4.9 3 Este 5 Este 0 927 1.5 77
2020-03-27 23:00:00 5.9 2 Este 6 Este 0 926.6 2 63
2020-03-27 22:00:00 7.1 2 Sudeste 9 Este 0 926.2 2.1 55
2020-03-27 21:00:00 8.2 4 Este 13 Este 0 925.5 2 50
2020-03-27 20:00:00 9.9 8 Este 21 Este 0 924.6 1.4 44
2020-03-27 19:00:00 11.9 11 Este 24 Sudeste 0 924.1 0.8 38
2020-03-27 18:00:00 13.5 9 Este 26 Nordeste 0 923.5 0.1 37
2020-03-27 17:00:00 13.4 8 Sudeste 29 Este 0 923.2 -0.5 38
2020-03-27 16:00:00 12.7 12 Este 30 Nordeste 0 923.3 -0.4 40
2020-03-27 15:00:00 12.6 12 Este 26 Este 0 923.4 -0.6 37
2020-03-27 14:00:00 12 9 Nordeste 27 Este 0 923.7 -0.5 40
2020-03-27 13:00:00 10 13 Nordeste 30 Nordeste 0 923.7 -0.3 44
2020-03-27 12:00:00 9.1 12 Nordeste 28 Este 0 924 0.3 46
2020-03-27 11:00:00 6.8 11 Nordeste 28 Nordeste 0 924.2 0.9 57
2020-03-27 10:00:00 5 10 Nordeste 27 Este 0 924 1 63
2020-03-27 09:00:00 2.7 10 Nordeste 22 Nordeste 0 923.7 0.7 70
2020-03-27 08:00:00 0.9 8 Nordeste 20 Nordeste 0 923.3 0.5 75
2020-03-27 07:00:00 1.5 6 Nordeste 19 Nordeste 0 923 0.1 71
2020-03-27 06:00:00 2.1 7 Nordeste 22 Nordeste 0 923 0.2 69
2020-03-27 05:00:00 2.4 9 Nordeste 19 Este 0 922.8 -0.3 70
2020-03-27 04:00:00 2.9 7 Nordeste 22 Nordeste 0 922.9 0.2 71
2020-03-27 03:00:00 3.5 8 Nordeste 22 Nordeste 0 922.8 0.2 71
2020-03-27 02:00:00 4.2 9 Nordeste 29 Nordeste 0 923.1 0.6 69
2020-03-27 01:00:00 5.2 12 Nordeste 30 Nordeste 0 922.7 1 66
2020-03-27 00:00:00 5.8 11 Nordeste 26 Este 0 922.6 1 64
2020-03-26 23:00:00 7.1 11 Nordeste 23 Este 0 922.5 1.2 61
2020-03-26 22:00:00 8.2 5 Nordeste 9 Este 0 921.7 0.5 56
2020-03-26 21:00:00 10 6 Este 15 Este 0 921.6 0.2 46
2020-03-26 20:00:00 12 5 Este 14 Este 0 921.3 -0.2 37
2020-03-26 19:00:00 15 5 Nordeste 15 Noroeste 0 921.2 -0.8 26
2020-03-26 18:00:00 15.7 3 Norte 15 Nordeste 0 921.4 -1.3 25
2020-03-26 17:00:00 16.4 5 Oeste 16 Oeste 0 921.5 -1.6 32
2020-03-26 16:00:00 16.1 4 Oeste 17 Sudoeste 0 922 -1.6 34
2020-03-26 15:00:00 15.1 3 Oeste 14 Oeste 0 922.7 -1.3 35
2020-03-26 14:00:00 13.3 2 Oeste 19 Sudoeste 0 923.1 -1.5 35
2020-03-26 13:00:00 14.2 6 Este 14 Este 0 923.6 -1.3 40
2020-03-26 12:00:00 12.2 5 Este 13 Este 0 924 -1.1 45
2020-03-26 11:00:00 9.4 5 Este 14 Este 0 924.6 -0.5 61
2020-03-26 10:00:00 6.3 3 Este 10 Este 0 924.9 0.2 86
2020-03-26 09:00:00 2.7 6 Este 10 Este 0 925.1 0.4 90
2020-03-26 08:00:00 1.5 6 Nordeste 13 Nordeste 0 925.1 0.5 93
2020-03-26 07:00:00 1.8 3 Este 6 Este 0 924.7 -0.4 91
2020-03-26 06:00:00 2.3 0 Calma 4 Sudoeste 0 924.7 -0.7 89
2020-03-26 05:00:00 3 0 Calma 5 Sudoeste 0 924.6 -1 84
2020-03-26 04:00:00 4.4 0 Calma 8 Sudoeste 0 925.1 -0.5 77
2020-03-26 03:00:00 5.5 0 Calma 6 Oeste 0 925.4 0.2 73
2020-03-26 02:00:00 7.7 2 Norte 18 Norte 0 925.6 0.6 60
2020-03-26 01:00:00 8.4 6 Noroeste 18 Norte 0 925.6 0.7 55
2020-03-26 00:00:00 9.6 6 Oeste 18 Oeste 0 925.2 0 53
2020-03-25 23:00:00 10.4 7 Oeste 18 Oeste 0 925 0 81
2020-03-25 22:00:00 10.8 3 Sudoeste 18 Sudoeste 0 924.9 -0.3 80
2020-03-25 21:00:00 11.1 4 Este 10 Sudoeste 0 925.2 -0.2 78
2020-03-25 20:00:00 11.3 4 Sur 13 Sur 0 925 -0.7 76
2020-03-25 19:00:00 11.9 0 Calma 18 Sudeste 0 925.2 -0.6 74
2020-03-25 18:00:00 12.5 8 Sur 14 Sur 0.4 925.4 -0.6 72
2020-03-25 17:00:00 13.5 4 Sur 17 Nordeste 1.6 925.7 -0.9 71
2020-03-25 16:00:00 14.2 8 Nordeste 22 Oeste 0.9 925.8 -1.7 61
2020-03-25 15:00:00 18.5 7 Oeste 17 Oeste 0 926 -1.9 41
2020-03-25 14:00:00 17.1 8 Oeste 20 Oeste 0 926.6 -1.7 45
2020-03-25 13:00:00 16.3 10 Oeste 28 Sudoeste 0 927.5 -0.9 48
2020-03-25 12:00:00 14.8 5 Sudoeste 15 Oeste 0 927.9 -0.4 60
2020-03-25 11:00:00 12.6 8 Oeste 18 Sudoeste 0 928.3 0 69
2020-03-25 10:00:00 10.3 6 Sudoeste 13 Sudoeste 0 928.4 0.3 79
2020-03-25 09:00:00 6.9 2 Sudoeste 5 Sudoeste 0 928.3 0.2 90
2020-03-25 08:00:00 4.6 0 Calma 2 Sudoeste 0 928.3 0.6 94
2020-03-25 07:00:00 4.1 0 Calma 4 Sudoeste 0 928.1 0.3 93
2020-03-25 06:00:00 4.2 0 Calma 3 Este 0 928.1 0.1 93
2020-03-25 05:00:00 4.6 0 Calma 6 Oeste 0 927.7 -0.4 91
2020-03-25 04:00:00 5.1 0 Calma 5 Sudoeste 0 927.8 -0.2 89
2020-03-25 03:00:00 5.9 0 Calma 4 Oeste 0 928 0.1 89
2020-03-25 02:00:00 6.8 0 Calma 9 Nordeste 0 928.1 0.3 87
2020-03-25 01:00:00 7.4 4 Nordeste 8 Este 0 928 0.3 84
2020-03-25 00:00:00 8.6 3 Este 13 Este 0 927.9 0.5 76
2020-03-24 23:00:00 10 7 Nordeste 17 Nordeste 0 927.8 0.8 66
2020-03-24 22:00:00 10.9 7 Nordeste 14 Nordeste 0 927.7 1 61
2020-03-24 21:00:00 12.4 7 Nordeste 19 Nordeste 0 927.4 1 56
2020-03-24 20:00:00 13.7 3 Nordeste 15 Este 0 927 0.6 53
2020-03-24 19:00:00 14.8 6 Nordeste 22 Nordeste 0 926.7 0.1 47
2020-03-24 18:00:00 15.7 6 Nordeste 18 Nordeste 0 926.4 -0.5 44
2020-03-24 17:00:00 16.5 7 Nordeste 18 Este 0 926.4 -0.9 41
2020-03-24 16:00:00 15.8 8 Nordeste 22 Este 0 926.6 -1.1 45
2020-03-24 15:00:00 16.3 10 Nordeste 26 Nordeste 0 926.9 -1.2 43
2020-03-24 14:00:00 16.3 10 Este 24 Nordeste 0 927.3 -1.1 44
2020-03-24 13:00:00 15.5 13 Nordeste 30 Este 0 927.7 -0.9 49
2020-03-24 12:00:00 14.6 11 Este 32 Nordeste 0 928.1 -0.3 53
2020-03-24 11:00:00 12.5 9 Este 18 Nordeste 0 928.4 0.1 63
2020-03-24 10:00:00 10 10 Nordeste 18 Nordeste 0 928.6 0.8 76
2020-03-24 09:00:00 7.7 3 Este 13 Este 0 928.4 0.8 87
2020-03-24 08:00:00 4.4 2 Este 8 Este 0 928.3 0.8 94
2020-03-24 07:00:00 4.4 0 Calma 6 Nordeste 0 927.8 0.2 93
2020-03-24 06:00:00 5 0 Calma 6 Este 0 927.6 0.1 91
2020-03-24 05:00:00 5.5 0 Calma 13 Nordeste 0 927.5 -0.2 89
2020-03-24 04:00:00 6 6 Nordeste 19 Nordeste 0 927.6 -0.2 86
2020-03-24 03:00:00 7.3 8 Nordeste 21 Nordeste 0 927.5 -0.2 81
2020-03-24 02:00:00 6.8 3 Este 13 Nordeste 0 927.7 0.3 82
2020-03-24 01:00:00 7.7 6 Nordeste 13 Este 0 927.8 0.6 78
2020-03-24 00:00:00 8.6 9 Nordeste 18 Este 0 927.7 0.7 74
2020-03-23 23:00:00 9 9 Nordeste 15 Nordeste 0 927.4 1.2 72
2020-03-23 22:00:00 9.9 7 Este 14 Este 0 927.2 1.1 71
2020-03-23 21:00:00 10.5 5 Este 12 Este 0 927 1.3 71
2020-03-23 20:00:00 12.2 4 Nordeste 15 Sudeste 0 926.2 0.3 60
2020-03-23 19:00:00 13.8 9 Este 23 Nordeste 0 926.1 0.3 53
2020-03-23 18:00:00 14 6 Nordeste 13 Norte 0 925.7 -0.3 61
2020-03-23 17:00:00 12 5 Nordeste 35 Este 0.2 925.9 -0.8 69
2020-03-23 16:00:00 14.9 14 Nordeste 28 Nordeste 0 925.8 -1.5 48
2020-03-23 15:00:00 15.3 12 Nordeste 28 Nordeste 0 926 -1.6 46
2020-03-23 14:00:00 15 10 Nordeste 27 Nordeste 0 926.7 -1 50
2020-03-23 13:00:00 13.5 8 Nordeste 21 Nordeste 0 927.3 -0.4 59
2020-03-23 12:00:00 12.7 6 Nordeste 19 Nordeste 0 927.6 0.1 58
2020-03-23 11:00:00 11.1 5 Nordeste 19 Nordeste 0 927.7 0.6 72
2020-03-23 10:00:00 7.5 0 Calma 8 Sudeste 0 927.7 1.2 96
2020-03-23 09:00:00 4.8 0 Calma 6 Este 0 927.5 1.3 98
2020-03-23 08:00:00 4 0 Calma 7 Sudeste 0 927.1 1.4 98
2020-03-23 07:00:00 4.1 0 Calma 6 Este 0 926.5 0.9 98
2020-03-23 06:00:00 4.2 0 Calma 2 Nordeste 0 926.2 0.5 97
2020-03-23 05:00:00 4.5 0 Calma -- -- 0 925.7 0 96
2020-03-23 04:00:00 5.1 0 Calma 5 Este 0 925.6 -0.4 96
2020-03-23 03:00:00 5.8 0 Calma 3 Sudeste 0 925.7 -0.4 94
2020-03-23 02:00:00 6.7 0 Calma 3 Sur 0 925.7 -0.2 92
2020-03-23 01:00:00 7.7 0 Calma 5 Nordeste 0 926 0.4 90
2020-03-23 00:00:00 8.8 2 Noroeste 9 Oeste 0 926.1 0.8 87
2020-03-22 23:00:00 8.3 3 Oeste 7 Oeste 0 925.9 1.6 90
2020-03-22 22:00:00 8.6 3 Este 7 Sudeste 0 925.6 1.4 86
2020-03-22 21:00:00 9.8 4 Sudeste 12 Nordeste 0 925.3 1.7 82
2020-03-22 20:00:00 10.4 5 Nordeste 27 Norte 0.1 924.3 1 80
2020-03-22 19:00:00 11.8 5 Norte 21 Norte 0.4 924.2 0.8 71
2020-03-22 18:00:00 14.1 4 Nordeste 23 Nordeste 0 923.6 -0.3 55
2020-03-22 17:00:00 14.8 7 Nordeste 20 Nordeste 0 923.3 -1.3 55
2020-03-22 16:00:00 13.9 9 Nordeste 22 Nordeste 0 923.4 -1.5 57
2020-03-22 15:00:00 12.8 8 Nordeste 17 Nordeste 0 923.9 -1.1 64
2020-03-22 14:00:00 10.9 6 Nordeste 14 Nordeste 0 924.6 -0.5 77
2020-03-22 13:00:00 9.9 2 Este 13 Este 0 924.9 0.2 81
2020-03-22 12:00:00 9.2 5 Este 15 Nordeste 0.1 925 0.9 83
2020-03-22 11:00:00 9.2 6 Este 14 Nordeste 0 925.1 1.5 82
2020-03-22 10:00:00 8.2 5 Este 10 Este 0 924.7 1.4 88
2020-03-22 09:00:00 7.3 4 Nordeste 11 Nordeste 0 924.1 1.1 92
2020-03-22 08:00:00 7.3 4 Nordeste 11 Nordeste 0 923.6 0.8 92
2020-03-22 07:00:00 7.3 0 Calma 15 Nordeste 0 923.3 0.5 91
2020-03-22 06:00:00 7.6 0 Calma 9 Nordeste 0 923 -0.1 91
2020-03-22 05:00:00 7.6 0 Calma 9 Noroeste 0 922.8 -0.5 95
2020-03-22 04:00:00 7.5 0 Calma 8 Noroeste 0 922.8 -0.7 95
2020-03-22 03:00:00 7 0 Calma 3 Sur 0 923.1 -0.4 96
2020-03-22 02:00:00 6.8 0 Calma 4 Sudoeste 0 923.3 0 96
2020-03-22 01:00:00 6.5 0 Calma 5 Oeste 0 923.5 0.1 95
2020-03-22 00:00:00 7.2 0 Calma 2 Sudoeste 0 923.5 0.5 94
2020-03-21 23:00:00 7.6 0 Calma 6 Sudoeste 0 923.3 0.7 92
2020-03-21 22:00:00 8 3 Oeste 8 Sudoeste 0 923.4 1.4 90
2020-03-21 21:00:00 8.5 0 Calma 7 Oeste 0 923 1 86
2020-03-21 20:00:00 9 4 Oeste 12 Noroeste 0 922.6 0.5 83
2020-03-21 19:00:00 9.6 4 Noroeste 11 Oeste 0 922 -0.5 82
2020-03-21 18:00:00 9.5 5 Oeste 12 Oeste 0 922 -0.6 83
2020-03-21 17:00:00 9.2 3 Noroeste 10 Sudoeste 0.5 922.1 -1 82
2020-03-21 16:00:00 9.6 5 Sudoeste 9 Sur 0.3 922.5 -1.2 78
2020-03-21 15:00:00 10 5 Sudoeste 13 Oeste 0 922.6 -1.2 75
2020-03-21 14:00:00 10.3 5 Oeste 14 Sudeste 0 923.1 -0.5 78
2020-03-21 13:00:00 8.4 8 Sur 15 Sur 0.8 923.7 0.5 89
2020-03-21 12:00:00 8.2 5 Oeste 14 Sudoeste 0.4 923.8 1.3 89
2020-03-21 11:00:00 7.9 6 Sudoeste 18 Oeste 0.4 923.6 1.5 89
2020-03-21 10:00:00 8.1 7 Oeste 24 Oeste 0.7 923.2 1.1 90
2020-03-21 09:00:00 8.9 0 Calma 8 Este 0.3 922.5 0 83
2020-03-21 08:00:00 8.9 5 Este 13 Sudeste 0 922.1 -0.1 79
2020-03-21 07:00:00 9.1 5 Este 11 Este 0 922.1 -0.3 77
2020-03-21 06:00:00 9.5 5 Nordeste 19 Sudeste 0 922.5 -0.2 76
2020-03-21 05:00:00 9.8 10 Este 21 Este 0 922.2 -0.8 76
2020-03-21 04:00:00 9.8 13 Este 24 Este 0 922.4 -1.2 76
2020-03-21 03:00:00 9.9 9 Nordeste 24 Este 0 922.7 -1.1 77
2020-03-21 02:00:00 10.2 10 Este 24 Este 0 923 -1 77
2020-03-21 01:00:00 10.1 9 Este 25 Este 0 923.6 -1 77
2020-03-21 00:00:00 10 8 Este 18 Este 0 923.8 -0.4 77
2020-03-20 23:00:00 10 5 Nordeste 12 Nordeste 0 924 -0.7 79
2020-03-20 22:00:00 10.3 5 Nordeste 24 Este 0 924.6 -0.3 77
2020-03-20 21:00:00 10.7 9 Nordeste 22 Este 0 924.2 -0.8 75
2020-03-20 20:00:00 11.2 7 Este 17 Nordeste 0 924.7 -0.5 79
2020-03-20 19:00:00 11.8 6 Nordeste 14 Este 0 924.9 -0.8 74
2020-03-20 18:00:00 12.7 4 Este 11 Este 0 925 -1.2 69
2020-03-20 17:00:00 12.6 2 Oeste 17 Oeste 0 925.2 -0.9 75
2020-03-20 16:00:00 11.4 7 Sudoeste 25 Sudoeste 0 925.7 -0.6 77
2020-03-20 15:00:00 11.3 10 Sudoeste 25 Oeste 0 926.2 -0.2 77
2020-03-20 14:00:00 12.5 11 Oeste 22 Oeste 0 926.1 -0.2 77
2020-03-20 13:00:00 12.8 5 Sudoeste 18 Sur 0.1 926.3 0.1 73
2020-03-20 12:00:00 13.2 9 Sur 16 Sur 0 926.4 0.4 68
2020-03-20 11:00:00 11.8 3 Este 10 Este 0 926.3 0.5 78
2020-03-20 10:00:00 10.1 5 Este 11 Este 0 926.2 0.4 84
2020-03-20 09:00:00 8.9 0 Calma 8 Este 0 926 0.4 91
2020-03-20 08:00:00 8 0 Calma 3 Nordeste 0 925.8 -0.2 93
2020-03-20 07:00:00 8.1 0 Calma 7 Este 0 925.8 -0.5 94
2020-03-20 06:00:00 8.2 0 Calma 8 Este 0 925.6 -1 94
2020-03-20 05:00:00 8.5 0 Calma 7 Este 0 926 -0.8 94
2020-03-20 04:00:00 8.7 0 Calma 9 Este 0 926.3 -0.7 93
2020-03-20 03:00:00 9.2 3 Este 9 Este 0 926.6 -0.8 93
2020-03-20 02:00:00 9.6 2 Nordeste 8 Nordeste 0 926.8 -0.9 91
2020-03-20 01:00:00 10.3 3 Este 5 Este 0 927 -0.6 90
2020-03-20 00:00:00 10.8 0 Calma 5 Este 0 927.4 -0.2 88
2020-03-19 23:00:00 11.2 2 Sudoeste 6 Sudoeste 0 927.7 0.2 85
2020-03-19 22:00:00 11.7 3 Sudoeste 5 Sudoeste 0 927.6 0.1 81
2020-03-19 21:00:00 12.1 0 Calma 4 Nordeste 0 927.6 0.1 79
2020-03-19 20:00:00 13 4 Nordeste 7 Este 0 927.5 -0.6 72
2020-03-19 19:00:00 13.9 3 Este 12 Este 0 927.5 -1.2 69
2020-03-19 18:00:00 14.4 4 Nordeste 17 Nordeste 0 927.5 -1.7 64
2020-03-19 17:00:00 15.1 4 Nordeste 8 Nordeste 0 928.1 -1.9 56
2020-03-19 16:00:00 15.3 3 Este 9 Nordeste 0 928.7 -1.9 56
2020-03-19 15:00:00 15.6 4 Este 8 Sudeste 0 929.2 -2.1 60
2020-03-19 14:00:00 15.5 3 Sur 9 Sudeste 0 930 -1.7 62
2020-03-19 13:00:00 15 0 Calma 8 Norte 0 930.6 -1.2 62
2020-03-19 12:00:00 13.9 3 Sudeste 10 Este 0 931.3 -0.5 72
2020-03-19 11:00:00 11.8 3 Este 7 Sudeste 0 931.7 0.2 81
2020-03-19 10:00:00 9.7 0 Calma 5 Este 0 931.8 0.1 89
2020-03-19 09:00:00 7.6 0 Calma 6 Oeste 0 931.8 0.3 92
2020-03-19 08:00:00 7.2 4 Oeste 5 Noroeste 0 931.5 0 93
2020-03-19 07:00:00 7.3 0 Calma 5 Sudoeste 0 931.7 0 92
2020-03-19 06:00:00 7.8 0 Calma 5 Sudoeste 0 931.5 -0.8 91
2020-03-19 05:00:00 8.2 0 Calma 0 Calma 0 931.5 -1.5 90
2020-03-19 04:00:00 8.4 0 Calma 6 Este 0 931.7 -1.4 89
2020-03-19 03:00:00 8.7 3 Este 5 Este 0 932.3 -1.3 88
2020-03-19 02:00:00 8.9 2 Este 6 Este 0 933 -1 86
2020-03-19 01:00:00 9.3 4 Este 8 Este 0 933.1 -1.2 84
2020-03-19 00:00:00 10.4 3 Este 10 Este 0 933.6 -0.6 80
2020-03-18 23:00:00 11.2 3 Este 9 Nordeste 0 934 0 82
2020-03-18 22:00:00 12.2 2 Este 13 Este 0 934.3 0.4 80
2020-03-18 21:00:00 13.5 7 Nordeste 12 Nordeste 0 934.2 0.6 75
2020-03-18 20:00:00 14.5 6 Nordeste 10 Este 0 934 0.2 73
2020-03-18 19:00:00 15.9 4 Nordeste 21 Nordeste 0 933.9 0 65
2020-03-18 18:00:00 16.7 8 Nordeste 22 Nordeste 0 933.6 -0.8 61
2020-03-18 17:00:00 16.9 10 Nordeste 22 Nordeste 0 933.8 -1.2 60
2020-03-18 16:00:00 17.2 10 Nordeste 27 Este 0 933.9 -1.8 59
2020-03-18 15:00:00 16.4 9 Nordeste 24 Nordeste 0 934.4 -2.1 61
2020-03-18 14:00:00 16.6 12 Nordeste 26 Este 0 935 -1.8 61
2020-03-18 13:00:00 14.7 9 Nordeste 19 Nordeste 0 935.7 -1.3 67
2020-03-18 12:00:00 13 5 Nordeste 18 Nordeste 0 936.5 -0.3 76
2020-03-18 11:00:00 11.1 3 Este 15 Nordeste 0 936.8 0.1 84
2020-03-18 10:00:00 8.6 0 Calma 10 Nordeste 0 937 0.2 94
2020-03-18 09:00:00 6.9 0 Calma 8 Este 0 936.8 0.2 96
2020-03-18 08:00:00 6 0 Calma 10 Este 0 936.7 0.1 96
2020-03-18 07:00:00 6.2 0 Calma 8 Este 0 936.8 0.3 96
2020-03-18 06:00:00 6.3 0 Calma 6 Este 0 936.6 0.1 95
2020-03-18 05:00:00 6.8 0 Calma 5 Este 0 936.6 -0.2 94
2020-03-18 04:00:00 7.8 6 Nordeste 18 Nordeste 0 936.5 -0.9 93
2020-03-18 03:00:00 7.8 4 Nordeste 14 Nordeste 0 936.5 -1.1 91
2020-03-18 02:00:00 8.1 6 Nordeste 12 Nordeste 0 936.8 -0.7 89
2020-03-18 01:00:00 8.3 5 Este 14 Nordeste 0 937.4 0.2 85
2020-03-18 00:00:00 8.8 4 Este 16 Nordeste 0 937.6 1 84
2020-03-17 23:00:00 9.8 6 Este 16 Este 0 937.5 1.7 80
2020-03-17 22:00:00 10.6 6 Nordeste 14 Nordeste 0 937.2 2.1 76
2020-03-17 21:00:00 11.8 5 Nordeste 13 Nordeste 0 936.6 1.9 72
2020-03-17 20:00:00 13 2 Nordeste 23 Este 0 935.8 1.7 67
2020-03-17 19:00:00 14.6 10 Este 26 Nordeste 0 935.1 0.8 58
2020-03-17 18:00:00 15.9 12 Nordeste 31 Este 0 934.7 0.1 54
2020-03-17 17:00:00 15.6 14 Este 32 Este 0 934.1 -0.7 57
2020-03-17 16:00:00 13.5 12 Este 26 Este 0 934.3 -1 66
2020-03-17 15:00:00 12.9 9 Nordeste 26 Nordeste 0 934.6 -0.7 70
2020-03-17 14:00:00 11 10 Nordeste 20 Nordeste 0 934.8 -0.5 75
2020-03-17 13:00:00 10.2 6 Este 16 Nordeste 0 935.3 0.8 76
2020-03-17 12:00:00 9 7 Nordeste 16 Este 0 935.3 1.7 85
2020-03-17 11:00:00 7.3 4 Este 14 Nordeste 0 935.3 1.8 93
2020-03-17 10:00:00 7.4 3 Este 19 Este 0 934.5 1.8 93
2020-03-17 09:00:00 6.6 6 Nordeste 21 Nordeste 0 933.6 1.7 95
2020-03-17 08:00:00 5.6 2 Este 11 Este 0 933.5 2.5 96
2020-03-17 07:00:00 5.2 5 Este 14 Este 0 932.7 1.8 95
2020-03-17 06:00:00 5.1 5 Nordeste 19 Nordeste 0 931.9 1.2 94
2020-03-17 05:00:00 4.8 5 Nordeste 22 Este 0 931 0.4 91
2020-03-17 04:00:00 5.2 8 Nordeste 30 Nordeste 0 930.9 0.2 91
2020-03-17 03:00:00 5.5 13 Nordeste 30 Nordeste 0 930.7 0.4 94
2020-03-17 02:00:00 4.5 3 Este 15 Este 0.4 930.6 1.1 97
2020-03-17 01:00:00 4 6 Este 26 Nordeste 0.7 930.7 1.7 95
2020-03-17 00:00:00 5.6 10 Nordeste 31 Nordeste 0.5 930.3 2 93
2020-03-16 23:00:00 5.3 14 Nordeste 43 Nordeste 0.5 929.5 1.7 92
2020-03-16 22:00:00 5.3 17 Nordeste 47 Nordeste 0.5 929 1.8 89
2020-03-16 21:00:00 5.6 14 Nordeste 48 Nordeste 0.1 928.3 1.5 87
2020-03-16 20:00:00 5.5 15 Nordeste 42 Nordeste 0.4 927.8 1 88
2020-03-16 19:00:00 5.6 18 Nordeste 39 Nordeste 0.1 927.2 0.7 86
2020-03-16 18:00:00 5.6 18 Nordeste 46 Nordeste 0.7 926.8 0.5 86
2020-03-16 17:00:00 5.4 13 Nordeste 40 Nordeste 1.3 926.8 0.3 86
2020-03-16 16:00:00 4.7 5 Nordeste 30 Nordeste 1.4 926.5 -0.1 90
2020-03-16 15:00:00 4.4 6 Noroeste 24 Noroeste 0.5 926.3 -0.3 89
2020-03-16 14:00:00 4.2 6 Noroeste 26 Norte 0.2 926.5 0.4 88
2020-03-16 13:00:00 3 8 Norte 28 Norte 0.8 926.6 0.9 94
2020-03-16 12:00:00 2.6 5 Noroeste 22 Noroeste 0.6 926.6 1.7 96
2020-03-16 11:00:00 2.2 7 Noroeste 21 Nordeste 1.4 926.1 1.9 96
2020-03-16 10:00:00 1.8 6 Noroeste 17 Noroeste 0.9 925.7 1.8 97
2020-03-16 09:00:00 1.3 6 Noroeste 22 Noroeste 1.3 924.9 1.5 97
2020-03-16 08:00:00 1.2 7 Oeste 19 Noroeste 1.1 924.2 1 97
2020-03-16 07:00:00 1.4 6 Oeste 24 Oeste 0.7 923.9 0.6 97
2020-03-16 06:00:00 1.4 12 Oeste 27 Oeste 0.9 923.4 -0.4 97
2020-03-16 05:00:00 1.4 8 Oeste 22 Oeste 1.1 923.2 -0.7 97
2020-03-16 04:00:00 1.9 9 Oeste 25 Oeste 0.2 923.3 -1.1 95
2020-03-16 03:00:00 2.6 13 Oeste 24 Oeste 0 923.8 -1 94
2020-03-16 02:00:00 2.6 9 Oeste 20 Oeste 0.1 923.9 -0.9 93
2020-03-16 01:00:00 2.9 10 Oeste 27 Oeste 0.4 924.4 0.1 91
2020-03-16 00:00:00 3.9 12 Oeste 35 Oeste 0 924.8 1.6 88
2020-03-15 23:00:00 4 12 Sudoeste 32 Oeste 0 924.8 3.1 91
2020-03-15 22:00:00 4.9 15 Oeste 37 Oeste 0.2 924.3 2.6 87
2020-03-15 21:00:00 7.1 19 Oeste 40 Oeste 0 923.2 1.2 73
2020-03-15 20:00:00 10.6 9 Sudoeste 25 Sudoeste 0 921.7 -0.7 61
2020-03-15 19:00:00 11.8 10 Oeste 33 Oeste 0 921.7 -1 56
2020-03-15 18:00:00 12.8 18 Oeste 35 Sudoeste 0 922 -0.3 60
2020-03-15 17:00:00 14.8 15 Oeste 36 Sudoeste 0 922.4 -0.6 58
2020-03-15 16:00:00 15.7 17 Oeste 44 Sudoeste 0 922.7 -1.4 57
2020-03-15 15:00:00 17.8 15 Sudoeste 36 Sudoeste 0 922.3 -2.6 45
2020-03-15 14:00:00 17.6 10 Sudoeste 32 Sudoeste 0 923 -2.9 48
2020-03-15 13:00:00 17.2 17 Sudoeste 36 Sudoeste 0 924.1 -2.3 48
2020-03-15 12:00:00 16.6 8 Sudoeste 17 Sudoeste 0 924.9 -1.8 49
2020-03-15 11:00:00 12.6 0 Calma 8 Este 0 925.9 -0.5 55
2020-03-15 10:00:00 8.8 3 Este 6 Este 0 926.4 0 68
2020-03-15 09:00:00 4.8 3 Este 7 Este 0 926.7 -0.2 81
2020-03-15 08:00:00 1.4 4 Este 8 Este 0 926.4 -0.7 88
2020-03-15 07:00:00 1.4 4 Este 8 Este 0 926.4 -1.2 87
2020-03-15 06:00:00 1.7 5 Este 9 Este 0 926.9 -1.4 86
2020-03-15 05:00:00 1.9 4 Este 9 Este 0 927.1 -1.7 85
2020-03-15 04:00:00 2.7 5 Este 7 Este 0 927.6 -1.6 84
2020-03-15 03:00:00 3.7 3 Este 6 Este 0 928.3 -1.4 80
2020-03-15 02:00:00 4.6 2 Sudeste 7 Nordeste 0 928.8 -1.2 76
2020-03-15 01:00:00 5.2 5 Este 7 Este 0 929.2 -0.7 75
2020-03-15 00:00:00 6.3 3 Este 6 Este 0 929.7 -0.2 68
2020-03-14 23:00:00 7.7 3 Este 5 Sudeste 0 930 0.4 67
2020-03-14 22:00:00 9.5 0 Calma 4 Este 0 929.9 0.4 55
2020-03-14 21:00:00 11.3 5 Este 11 Norte 0 929.9 0.6 47
2020-03-14 20:00:00 15.1 5 Nordeste 9 Nordeste 0 929.6 0 29
2020-03-14 19:00:00 17.7 5 Nordeste 12 Este 0 929.5 -0.5 25
2020-03-14 18:00:00 18.9 3 Norte 10 Nordeste 0 929.3 -1.3 23
2020-03-14 17:00:00 18.9 2 Norte 13 Nordeste 0 929.6 -2 23
2020-03-14 16:00:00 19.1 4 Norte 16 Nordeste 0 930 -2.2 25
2020-03-14 15:00:00 18.5 6 Nordeste 19 Este 0 930.6 -2 27
2020-03-14 14:00:00 17.3 6 Nordeste 19 Nordeste 0 931.6 -1.4 31
2020-03-14 13:00:00 15.5 7 Nordeste 18 Nordeste 0 932.2 -0.9 36
2020-03-14 12:00:00 13.8 9 Este 15 Este 0 932.6 -0.1 44
2020-03-14 11:00:00 9.9 3 Sudeste 10 Este 0 933 0.5 79
2020-03-14 10:00:00 4.4 2 Este 10 Este 0 933.1 0.9 97
2020-03-14 09:00:00 3.1 0 Calma 6 Este 0 932.7 0.9 98
2020-03-14 08:00:00 2.7 0 Calma 4 Este 0 932.5 0.8 96
2020-03-14 07:00:00 3.2 0 Calma 5 Este 0 932.2 0.6 96
2020-03-14 06:00:00 4.1 3 Este 5 Este 0 931.8 -0.1 94
2020-03-14 05:00:00 4.8 4 Este 7 Este 0 931.7 -0.4 94
2020-03-14 04:00:00 5.3 2 Este 5 Nordeste 0 931.6 -0.5 92
2020-03-14 03:00:00 5.7 3 Este 9 Este 0 931.9 -0.2 89
2020-03-14 02:00:00 6.6 4 Este 11 Este 0 932.1 0.2 87
2020-03-14 01:00:00 7.5 5 Este 12 Este 0 932.1 1.1 83
2020-03-14 00:00:00 8.5 5 Este 13 Nordeste 0 932.1 1.5 80
2020-03-13 23:00:00 9.8 4 Nordeste 12 Este 0 931.9 2.1 76
2020-03-13 22:00:00 11.4 7 Nordeste 19 Nordeste 0 931 1.3 70
2020-03-13 21:00:00 12.4 4 Nordeste 20 Nordeste 0 930.6 1.3 67
2020-03-13 20:00:00 14 4 Nordeste 15 Norte 0 929.8 0.7 64
2020-03-13 19:00:00 15 6 Noroeste 21 Norte 0 929.7 0.4 61
2020-03-13 18:00:00 15.7 8 Noroeste 22 Este 0 929.3 -0.3 59
2020-03-13 17:00:00 16.5 3 Norte 20 Norte 0 929.1 -1.2 56
2020-03-13 16:00:00 16 5 Norte 19 Este 0 929.3 -1.4 59
2020-03-13 15:00:00 16.8 4 Nordeste 22 Nordeste 0 929.6 -1.2 57
2020-03-13 14:00:00 15.8 9 Nordeste 19 Este 0 930.3 -0.7 63
2020-03-13 13:00:00 12.5 8 Nordeste 22 Nordeste 0 930.7 -0.4 72
2020-03-13 12:00:00 11 9 Nordeste 22 Nordeste 0 930.8 -0.2 77
2020-03-13 11:00:00 9.6 10 Nordeste 24 Nordeste 0 931 0.4 81
2020-03-13 10:00:00 9.3 12 Nordeste 27 Nordeste 0 931.1 0.8 84
2020-03-13 09:00:00 8.6 8 Nordeste 19 Nordeste 0 931 1.2 87
2020-03-13 08:00:00 8.4 6 Nordeste 21 Norte 0 930.6 0.7 89
2020-03-13 07:00:00 8 7 Nordeste 22 Nordeste 0 930.3 0.5 91
2020-03-13 06:00:00 8.3 5 Nordeste 15 Nordeste 0 929.8 -0.1 92
2020-03-13 05:00:00 8.4 4 Este 18 Nordeste 0 929.9 -0.3 90
2020-03-13 04:00:00 9 5 Nordeste 15 Este 0 929.8 -0.6 89
2020-03-13 03:00:00 9.5 4 Nordeste 14 Este 0 929.9 -0.3 88
2020-03-13 02:00:00 10.1 5 Nordeste 16 Nordeste 0 930.2 0.7 87
2020-03-13 01:00:00 11.2 5 Nordeste 17 Nordeste 0 930.4 0.8 82
2020-03-13 00:00:00 13.1 5 Nordeste 13 Norte 0 930.2 1 80
2020-03-12 23:00:00 14.4 0 Calma 5 Sudoeste 0 929.5 0.6 78
2020-03-12 22:00:00 15.9 0 Calma 4 Oeste 0 929.6 1 72
2020-03-12 21:00:00 17.1 0 Calma 6 Este 0 929.2 1 67
2020-03-12 20:00:00 18.8 0 Calma 9 Sudoeste 0 928.9 0.7 57
2020-03-12 19:00:00 20 0 Calma 14 Noroeste 0 928.6 0.1 52
2020-03-12 18:00:00 20.6 6 Noroeste 13 Oeste 0 928.2 -0.9 47
2020-03-12 17:00:00 21.7 7 Oeste 17 Sudoeste 0 928.2 -1.5 44
2020-03-12 16:00:00 21.7 8 Oeste 15 Oeste 0 928.5 -1.9 43
2020-03-12 15:00:00 22.2 9 Oeste 16 Oeste 0 929.1 -1.6 40
2020-03-12 14:00:00 22.9 9 Oeste 31 Sudoeste 0 929.7 -1.7 40
2020-03-12 13:00:00 23.9 14 Sur 27 Sur 0 930.4 -0.9 33
2020-03-12 12:00:00 21.7 4 Nordeste 10 Nordeste 0 930.7 -0.5 48
2020-03-12 11:00:00 15.7 3 Este 10 Este 0 931.4 0.5 66
2020-03-12 10:00:00 12 4 Este 8 Este 0 931.3 0.4 77
2020-03-12 09:00:00 9.7 3 Este 8 Sudeste 0 931.2 0.3 85
2020-03-12 08:00:00 9.1 4 Este 8 Sudeste 0 930.9 -0.2 85
2020-03-12 07:00:00 9.4 4 Este 8 Este 0 930.9 -0.7 85
2020-03-12 06:00:00 10 3 Este 8 Este 0 930.9 -1.2 83
2020-03-12 05:00:00 10.5 3 Este 7 Este 0 931.1 -1.4 80
2020-03-12 04:00:00 11.5 3 Este 7 Este 0 931.6 -1.3 76
2020-03-12 03:00:00 12.2 3 Este 9 Este 0 932.1 -1 73
2020-03-12 02:00:00 13 4 Este 7 Este 0 932.5 -0.8 70
2020-03-12 01:00:00 13.8 3 Este 8 Este 0 932.9 -0.3 68
2020-03-12 00:00:00 14.5 3 Este 8 Este 0 933.1 -0.1 66
2020-03-11 23:00:00 15.6 2 Este 4 Este 0 933.3 0 61
2020-03-11 22:00:00 16.8 0 Calma 5 Este 0 933.2 0.1 57
2020-03-11 21:00:00 18.3 0 Calma 5 Oeste 0 933.2 0.4 49
2020-03-11 20:00:00 19.9 3 Oeste 10 Oeste 0 933.3 0.4 43
2020-03-11 19:00:00 21.5 4 Sur 12 Oeste 0 933.1 0.2 41
2020-03-11 18:00:00 23.3 5 Oeste 15 Oeste 0 932.8 -0.8 36
2020-03-11 17:00:00 24.8 9 Oeste 19 Oeste 0 932.9 -1.4 33
2020-03-11 16:00:00 25.1 7 Oeste 23 Sudoeste 0 932.9 -2.1 32
2020-03-11 15:00:00 25.1 8 Oeste 20 Noroeste 0 933.6 -2 35
2020-03-11 14:00:00 24.1 8 Oeste 18 Oeste 0 934.3 -1.6 33
2020-03-11 13:00:00 22.4 4 Sudoeste 13 Sudoeste 0 935 -1 41
2020-03-11 12:00:00 20.1 0 Calma 7 Este 0 935.6 -0.2 48
2020-03-11 11:00:00 15.5 3 Sudeste 10 Este 0 935.9 0.1 62
2020-03-11 10:00:00 12.3 4 Este 9 Sudeste 0 936 0.3 73
2020-03-11 09:00:00 8.3 3 Este 9 Este 0 935.8 0.1 89
2020-03-11 08:00:00 5.9 0 Calma 6 Este 0 935.8 0.2 94
2020-03-11 07:00:00 5.8 3 Este 8 Este 0 935.7 -0.2 93
2020-03-11 06:00:00 6.3 4 Este 7 Este 0 935.7 -0.7 93
2020-03-11 05:00:00 7.1 0 Calma 5 Este 0 935.6 -1.1 93
2020-03-11 04:00:00 7.5 2 Este 7 Este 0 935.9 -1.1 91
2020-03-11 03:00:00 7.9 4 Este 7 Este 0 936.4 -0.9 89
2020-03-11 02:00:00 8.6 5 Este 6 Este 0 936.7 -0.9 87
2020-03-11 01:00:00 9.7 0 Calma 6 Este 0 937 -0.4 84
2020-03-11 00:00:00 10.9 0 Calma 4 Noroeste 0 937.3 0.4 79
2020-03-10 23:00:00 12.1 0 Calma 7 Sudoeste 0 937.6 1.1 75
2020-03-10 22:00:00 13.4 3 Oeste 5 Sudoeste 0 937.4 1.3 69
2020-03-10 21:00:00 15.5 4 Sudoeste 7 Sudoeste 0 936.9 1.1 60
2020-03-10 20:00:00 17.8 4 Oeste 11 Oeste 0 936.5 0.4 50
2020-03-10 19:00:00 20.3 7 Oeste 19 Oeste 0 936.1 -0.3 41
2020-03-10 18:00:00 22.8 9 Oeste 19 Oeste 0 935.8 -1 38
2020-03-10 17:00:00 22.8 10 Sudoeste 24 Sudoeste 0 936.1 -1.2 36
2020-03-10 16:00:00 23.1 12 Sudoeste 25 Sudoeste 0 936.4 -1.7 36
2020-03-10 15:00:00 22.2 12 Oeste 21 Sudoeste 0 936.8 -2 38
2020-03-10 14:00:00 22 5 Sudoeste 14 Sur 0 937.3 -1.4 38
2020-03-10 13:00:00 19.8 4 Sur 9 Este 0 938.1 -0.8 43
2020-03-10 12:00:00 16 4 Sur 8 Sur 0 938.8 0.2 53
2020-03-10 11:00:00 12.4 0 Calma 5 Este 0 938.7 0.6 63
2020-03-10 10:00:00 8.4 3 Este 6 Este 0 938.9 0.7 78
2020-03-10 09:00:00 6.4 4 Este 8 Este 0 938.6 0.6 85
2020-03-10 08:00:00 4.1 6 Este 9 Este 0 938.1 -0.1 88
2020-03-10 07:00:00 4.6 7 Este 10 Este 0 938.2 0.1 88
2020-03-10 06:00:00 5.8 0 Calma 7 Este 0 938 -0.4 87
2020-03-10 05:00:00 5.5 0 Calma 5 Oeste 0 938.2 -0.5 86
2020-03-10 04:00:00 5.5 0 Calma 4 Este 0 938.1 -0.8 85
2020-03-10 03:00:00 6.1 0 Calma 3 Este 0 938.4 -0.6 82
2020-03-10 02:00:00 6.3 0 Calma 8 Este 0 938.7 -0.2 78
2020-03-10 01:00:00 7 0 Calma 6 Este 0 938.9 0 73
2020-03-10 00:00:00 7.8 0 Calma 8 Este 0 939 0.9 71
2020-03-09 23:00:00 8.9 0 Calma 5 Este 0 938.9 0.8 68
2020-03-09 22:00:00 9.5 0 Calma 7 Sudoeste 0 938.9 1.2 63
2020-03-09 21:00:00 10.8 4 Oeste 8 Sudoeste 0 938.1 0.6 54
2020-03-09 20:00:00 12.3 5 Sudoeste 12 Oeste 0 938.1 0.7 48
2020-03-09 19:00:00 14.3 6 Oeste 13 Oeste 0 937.7 -0.2 39
2020-03-09 18:00:00 15.6 6 Oeste 17 Oeste 0 937.5 -1.1 37
2020-03-09 17:00:00 15.5 10 Sur 18 Sur 0 937.4 -1.8 39
2020-03-09 16:00:00 15.4 7 Sudoeste 19 Sudoeste 0 937.9 -1.6 41
2020-03-09 15:00:00 14.9 6 Sudoeste 18 Sudoeste 0 938.6 -1.7 45
2020-03-09 14:00:00 14 5 Sudoeste 18 Sudoeste 0 939.2 -0.6 49
2020-03-09 13:00:00 12.5 5 Sudoeste 15 Sur 0 939.5 -0.1 55
2020-03-09 12:00:00 10.4 4 Oeste 17 Oeste 0 940.3 0.9 62
2020-03-09 11:00:00 9 3 Oeste 17 Sudoeste 0 939.8 0.7 73
2020-03-09 10:00:00 6.9 8 Sudoeste 14 Sudoeste 0 939.6 1.2 81
2020-03-09 09:00:00 5.5 3 Oeste 13 Sudoeste 0 939.4 1 89
2020-03-09 08:00:00 4.4 0 Calma 11 Oeste 0 939.1 0.5 92
2020-03-09 07:00:00 4.7 5 Oeste 12 Oeste 0 938.4 0 93
2020-03-09 06:00:00 4.8 4 Oeste 9 Oeste 0 938.4 -0.5 94
2020-03-09 05:00:00 5.2 2 Oeste 9 Sudoeste 0 938.6 -0.3 94
2020-03-09 04:00:00 5.7 5 Oeste 12 Oeste 0 938.4 -0.1 93
2020-03-09 03:00:00 6.1 3 Oeste 11 Oeste 0 938.9 0.6 94
2020-03-09 02:00:00 6.7 2 Oeste 17 Oeste 0 938.9 1 94
2020-03-09 01:00:00 7.6 6 Oeste 22 Sudoeste 0 938.5 0.6 94
2020-03-09 00:00:00 8 8 Oeste 20 Oeste 0 938.3 0.6 94
2020-03-08 23:00:00 8.7 10 Sudoeste 25 Sudoeste 0 937.9 0.6 91
2020-03-08 22:00:00 9.1 11 Sudoeste 22 Oeste 0 937.9 0.9 88
2020-03-08 21:00:00 9 8 Sudoeste 17 Oeste 0 937.7 0.7 85
2020-03-08 20:00:00 9.9 7 Sudoeste 19 Sudoeste 0 937.3 0.4 79
2020-03-08 19:00:00 11.2 9 Sudoeste 25 Oeste 0 937 0.3 73
2020-03-08 18:00:00 11.8 11 Oeste 26 Sudoeste 0 937 -0.1 69
2020-03-08 17:00:00 11.6 14 Sudoeste 30 Oeste 0 936.9 -0.3 65
2020-03-08 16:00:00 11.8 11 Sudoeste 22 Sudoeste 0 936.7 -1.3 60
2020-03-08 15:00:00 11 6 Sudoeste 29 Oeste 0 937.1 -0.9 61
2020-03-08 14:00:00 10.5 12 Sudoeste 24 Sudoeste 0 937.2 -0.8 65
2020-03-08 13:00:00 9.4 9 Sudoeste 22 Sudoeste 0 938 0 75
2020-03-08 12:00:00 8.6 8 Sudoeste 23 Sudoeste 0 938 0.3 77
2020-03-08 11:00:00 8 8 Sudoeste 20 Sudoeste 0 938 1.3 84
2020-03-08 10:00:00 5.5 7 Sudoeste 17 Sudoeste 0 938 1.3 94
2020-03-08 09:00:00 4.4 7 Sudoeste 19 Oeste 0 937.7 1.1 99
2020-03-08 08:00:00 4.3 9 Sudoeste 17 Sudoeste 0 936.7 0.5 99
2020-03-08 07:00:00 3.6 3 Oeste 12 Oeste 0 936.7 0.5 97
2020-03-08 06:00:00 2.1 3 Este 7 Este 0 936.6 0 95
2020-03-08 05:00:00 2 4 Este 8 Este 0 936.2 -0.5 93
2020-03-08 04:00:00 2.4 3 Este 8 Este 0 936.2 -0.7 93
2020-03-08 03:00:00 2.8 4 Este 7 Este 0 936.6 -0.6 93
2020-03-08 02:00:00 3.1 3 Este 7 Este 0 936.7 -1.1 92
2020-03-08 01:00:00 4 4 Este 7 Este 0 936.9 -0.8 88
2020-03-08 00:00:00 5.1 4 Este 7 Este 0 937.2 -0.2 82
2020-03-07 23:00:00 6.3 0 Calma 4 Este 0 937.8 0.6 78
2020-03-07 22:00:00 8 4 Sudoeste 10 Sudoeste 0 937.7 0.9 74
2020-03-07 21:00:00 9.4 0 Calma 8 Oeste 0 937.4 0.8 68
2020-03-07 20:00:00 11.5 2 Sudoeste 6 Noroeste 0 937.2 0.3 57
2020-03-07 19:00:00 13.4 4 Oeste 13 Sudoeste 0 936.8 -0.2 49
2020-03-07 18:00:00 14.5 10 Oeste 16 Sudoeste 0 936.6 -0.7 45
2020-03-07 17:00:00 15.5 5 Noroeste 14 Oeste 0 936.9 -1.2 45
2020-03-07 16:00:00 14.3 4 Sudoeste 14 Sur 0 937 -1.9 45
2020-03-07 15:00:00 14.2 8 Sur 13 Sudoeste 0 937.3 -1.9 49
2020-03-07 14:00:00 13.7 3 Este 13 Este 0 938.1 -1.3 50
2020-03-07 13:00:00 11.8 4 Este 10 Sudoeste 0 938.9 -0.2 60
2020-03-07 12:00:00 9.5 5 Sur 14 Sudoeste 0 939.2 0.7 70
2020-03-07 11:00:00 7.8 6 Sur 13 Sur 0 939.4 1.2 80
2020-03-07 10:00:00 5.7 5 Sur 11 Sur 0 939.1 1.2 86
2020-03-07 09:00:00 3.6 3 Sur 12 Sur 0 938.5 1.3 90
2020-03-07 08:00:00 2.7 5 Sudoeste 11 Sudoeste 0 938.2 1.1 89
2020-03-07 07:00:00 2.9 5 Sudoeste 11 Sudoeste 0 937.9 0.7 88
2020-03-07 06:00:00 3.4 6 Oeste 10 Sudoeste 0 937.2 -0.1 86
2020-03-07 05:00:00 3.1 2 Sudoeste 11 Oeste 0 937.1 -0.4 85
2020-03-07 04:00:00 3 5 Oeste 9 Sudoeste 0 937.2 -0.2 83
2020-03-07 03:00:00 3.1 6 Sudoeste 13 Sudoeste 0 937.3 0.3 82
2020-03-07 02:00:00 3.9 7 Oeste 18 Oeste 0 937.5 0.8 77
2020-03-07 01:00:00 4.4 6 Oeste 17 Oeste 0 937.4 1 71
2020-03-07 00:00:00 4.8 10 Oeste 20 Oeste 0 937 1.4 66
2020-03-06 23:00:00 5.5 8 Oeste 19 Oeste 0 936.7 1.9 61
2020-03-06 22:00:00 6 6 Oeste 23 Oeste 0 936.4 2.2 57
2020-03-06 21:00:00 7 10 Oeste 30 Oeste 0 935.6 2.4 53
2020-03-06 20:00:00 7.9 10 Oeste 30 Oeste 0 934.8 2.3 53
2020-03-06 19:00:00 8.9 12 Oeste 35 Oeste 0 934.2 2 53
2020-03-06 18:00:00 10.4 18 Oeste 37 Sudoeste 0 933.2 1.2 44
2020-03-06 17:00:00 10.6 19 Oeste 41 Oeste 0 932.5 0.1 47
2020-03-06 16:00:00 10.6 17 Oeste 40 Oeste 0 932.2 -0.5 49
2020-03-06 15:00:00 10.6 17 Oeste 36 Oeste 0 932 -0.5 51
2020-03-06 14:00:00 9.7 19 Oeste 40 Oeste 0 932.4 0.6 55
2020-03-06 13:00:00 8.6 21 Oeste 39 Oeste 0 932.7 1.3 61
2020-03-06 12:00:00 7.6 18 Oeste 40 Sudoeste 0 932.5 2.1 66
2020-03-06 11:00:00 6.3 17 Oeste 33 Oeste 0.1 931.8 1.6 78
2020-03-06 10:00:00 5.2 15 Oeste 36 Sudoeste 0.1 931.4 2.1 87
2020-03-06 09:00:00 5.2 14 Oeste 31 Oeste 0 930.4 1.9 78
2020-03-06 08:00:00 4.9 15 Oeste 34 Sudoeste 0 930.2 2.4 84
2020-03-06 07:00:00 4.9 13 Oeste 38 Oeste 0 929.3 1.5 88
2020-03-06 06:00:00 5.6 17 Oeste 36 Oeste 0 928.5 0.6 85
2020-03-06 05:00:00 5.9 10 Oeste 37 Sudoeste 0 927.8 -0.5 86
2020-03-06 04:00:00 6.4 19 Sudoeste 45 Sudoeste 0 927.8 -0.6 85
2020-03-06 03:00:00 6 17 Sudoeste 33 Sudoeste 0 927.9 -1 89
2020-03-06 02:00:00 5.6 17 Sudoeste 35 Sudoeste 0 928.3 -0.6 87
2020-03-06 01:00:00 5.2 14 Sudoeste 29 Sudoeste 0 928.4 -0.5 88
2020-03-06 00:00:00 5.4 12 Sudoeste 27 Sudoeste 0 928.9 0.8 85
2020-03-05 23:00:00 5.8 9 Sudoeste 28 Oeste 0 928.9 1.2 86
2020-03-05 22:00:00 6.7 7 Oeste 19 Oeste 0 928.9 2 85
2020-03-05 21:00:00 7.4 15 Oeste 35 Oeste 0 928.1 2.1 83
2020-03-05 20:00:00 7.5 18 Oeste 36 Oeste 0.1 927.7 2.1 85
2020-03-05 19:00:00 8.5 10 Oeste 36 Oeste 0.8 926.9 1.5 87
2020-03-05 18:00:00 10.3 12 Oeste 45 Oeste 0.4 926 0.5 78
2020-03-05 17:00:00 11.9 15 Oeste 44 Sudoeste 0 925.6 0.1 57
2020-03-05 16:00:00 12.6 18 Oeste 39 Sudoeste 0 925.4 0.2 59
2020-03-05 15:00:00 11.8 19 Sudoeste 51 Sudoeste 0 925.5 -0.4 60
2020-03-05 14:00:00 11.5 22 Oeste 57 Sudoeste 0 925.5 0 59
2020-03-05 13:00:00 11.4 24 Sudoeste 54 Sudoeste 0 925.2 -0.2 63
2020-03-05 12:00:00 10.8 23 Sudoeste 46 Sudoeste 0 925.9 2.1 65
2020-03-05 11:00:00 8.9 20 Sudoeste 49 Sudoeste 0 925.5 3.1 78
2020-03-05 10:00:00 8.1 16 Oeste 51 Oeste 0.7 925.4 2.4 86
2020-03-05 09:00:00 9.5 22 Sudoeste 50 Sudoeste 2.2 923.8 0.3 91
2020-03-05 08:00:00 10.5 21 Sur 41 Sur 0.1 922.4 -1.8 89
2020-03-05 07:00:00 11 17 Sur 38 Sur 0 923 -2.5 81
2020-03-05 06:00:00 11.3 20 Sur 37 Sudoeste 0 923.5 -3.3 73
2020-03-05 05:00:00 10.8 14 Sudoeste 34 Sur 0 924.2 -3.4 77
2020-03-05 04:00:00 11 17 Sudoeste 37 Sur 0 925.5 -3.2 85
2020-03-05 03:00:00 11.2 9 Sur 21 Sur 0 926.8 -2.5 86
2020-03-05 02:00:00 11.6 9 Sur 21 Sur 0 927.6 -2.3 85
2020-03-05 01:00:00 11.7 9 Sur 30 Sur 0 928.7 -1.5 83
2020-03-05 00:00:00 11.5 13 Sur 26 Sudoeste 0 929.3 -1.2 85
2020-03-04 23:00:00 11.9 8 Sudoeste 25 Sudoeste 0 929.9 -0.8 82
2020-03-04 22:00:00 12.1 13 Sudoeste 28 Sudoeste 0 930.2 -0.3 82
2020-03-04 21:00:00 12 12 Sur 20 Sudoeste 0 930.5 -0.2 82
2020-03-04 20:00:00 11.9 10 Sur 29 Sudoeste 0 930.7 -0.3 79
2020-03-04 19:00:00 12.9 11 Sudoeste 28 Sudoeste 0 930.5 -1.3 73
2020-03-04 18:00:00 13.4 10 Sudoeste 40 Sudoeste 0 930.7 -1.5 69
2020-03-04 17:00:00 14.4 12 Sudoeste 26 Sudoeste 0 931 -1.8 63
2020-03-04 16:00:00 13.7 13 Sudoeste 28 Sudoeste 0 931.8 -1.5 66
2020-03-04 15:00:00 13.9 10 Oeste 29 Sudoeste 0 932.2 -1.3 66
2020-03-04 14:00:00 13.8 14 Sudoeste 35 Sudoeste 0 932.8 -0.7 69
2020-03-04 13:00:00 13 15 Sudoeste 31 Sudoeste 0 933.3 0.1 75
2020-03-04 12:00:00 12.4 13 Sudoeste 27 Sudoeste 0 933.5 0.6 77
2020-03-04 11:00:00 11.6 11 Sudoeste 27 Sudoeste 0 933.5 1.1 85
2020-03-04 10:00:00 10.5 11 Sudoeste 23 Sudoeste 0 933.2 1 90
2020-03-04 09:00:00 10 9 Sudoeste 27 Sudoeste 0 932.9 0.7 92
2020-03-04 08:00:00 9.9 12 Sudoeste 31 Sudoeste 0 932.4 0.2 93
2020-03-04 07:00:00 10.1 15 Sudoeste 31 Sudoeste 0 932.2 0.1 93
2020-03-04 06:00:00 10.2 13 Sudoeste 29 Sudoeste 0 932.2 -0.3 94
2020-03-04 05:00:00 10.5 11 Sudoeste 32 Sudoeste 0.5 932.2 0 96
2020-03-04 04:00:00 11.1 12 Sudoeste 26 Sudoeste 0 932.1 -0.2 94
2020-03-04 03:00:00 11.3 13 Sudoeste 27 Sudoeste 0.1 932.5 0.3 95
2020-03-04 02:00:00 11.6 12 Sudoeste 27 Sudoeste 0 932.2 0.3 94
2020-03-04 01:00:00 11.8 8 Sudoeste 24 Sudoeste 0 932.3 0.8 95
2020-03-04 00:00:00 11.8 9 Sudoeste 29 Sudoeste 0 932.2 1.3 94
2020-03-03 23:00:00 12.3 14 Sudoeste 28 Oeste 0 931.9 1.2 89
2020-03-03 22:00:00 12.3 10 Sudoeste 24 Sudoeste 0 931.5 1.5 89
2020-03-03 21:00:00 12.6 13 Sudoeste 28 Oeste 0 930.9 1.7 87
2020-03-03 20:00:00 12.8 11 Sudoeste 26 Sudoeste 0 930.7 2.1 84
2020-03-03 19:00:00 13.4 13 Sudoeste 34 Sudoeste 0 930 1.6 80
2020-03-03 18:00:00 13.8 16 Sudoeste 39 Sudoeste 0 929.2 0.7 78
2020-03-03 17:00:00 14.5 14 Oeste 38 Sudoeste 0 928.6 -0.3 75
2020-03-03 16:00:00 14.5 16 Sudoeste 44 Sudoeste 0 928.4 -0.7 79
2020-03-03 15:00:00 13 17 Sudoeste 40 Sudoeste 0 928.5 0.2 85
2020-03-03 14:00:00 12.6 15 Sudoeste 40 Sudoeste 0 928.9 1.2 85
2020-03-03 13:00:00 11.9 14 Sudoeste 41 Sudoeste 0 929.1 1.5 85
2020-03-03 12:00:00 10.6 18 Sudoeste 46 Sudoeste 0 928.3 1.1 86
2020-03-03 11:00:00 9.5 19 Sudoeste 42 Sudoeste 0 927.7 -0.3 89
2020-03-03 10:00:00 8.1 15 Sudoeste 49 Sudoeste 0 927.6 -0.8 90
2020-03-03 09:00:00 7.3 17 Sudoeste 43 Sudoeste 0 927.2 -0.6 88
2020-03-03 08:00:00 7.3 14 Sudoeste 45 Sur 0 928 -0.2 85
2020-03-03 07:00:00 7.2 22 Sudoeste 44 Sur 0 928.4 -0.3 82
2020-03-03 06:00:00 7.1 17 Sudoeste 51 Sur 0 927.8 -1.9 81
2020-03-03 05:00:00 7 16 Sudoeste 36 Sur 0 928.2 -2 79
2020-03-03 04:00:00 6.1 12 Sur 27 Sudoeste 0 928.7 -1.7 81
2020-03-03 03:00:00 5.8 12 Sudoeste 28 Sudoeste 0 929.7 -0.8 81
2020-03-03 02:00:00 5.6 16 Sudoeste 31 Sur 0 930.2 -0.2 81
2020-03-03 01:00:00 5.3 15 Sur 30 Sudoeste 0 930.4 -0.1 80
2020-03-03 00:00:00 4.2 10 Sur 22 Sudoeste 0 930.5 1.3 80
2020-03-02 23:00:00 4.4 10 Sur 21 Sur 0 930.4 1.7 81
2020-03-02 22:00:00 5.1 5 Sudoeste 18 Sudoeste 0 930.5 2.7 78
2020-03-02 21:00:00 5.4 9 Oeste 27 Oeste 0 929.2 2.4 77
2020-03-02 20:00:00 6.4 13 Oeste 30 Sudoeste 0 928.7 3 71
2020-03-02 19:00:00 7.1 14 Sudoeste 40 Oeste 0 927.8 2.1 65
2020-03-02 18:00:00 8.8 18 Oeste 41 Noroeste 0 926.8 1.7 55
2020-03-02 17:00:00 9 18 Oeste 50 Oeste 0 925.7 0.5 56
2020-03-02 16:00:00 8.9 21 Oeste 50 Oeste 0 925.7 1.9 59
2020-03-02 15:00:00 7.7 19 Oeste 46 Oeste 0.2 925.1 3.2 76
2020-03-02 14:00:00 4.5 26 Oeste 59 Oeste 0.8 925.2 3.7 75
2020-03-02 13:00:00 6.5 19 Oeste 55 Oeste 0.1 923.8 2.8 78
2020-03-02 12:00:00 9.4 23 Oeste 50 Oeste 0 921.9 2.1 64
2020-03-02 11:00:00 8.1 18 Sudoeste 50 Oeste 0 921.5 2.8 75
2020-03-02 10:00:00 7.3 16 Sudoeste 44 Oeste 0 921 3.7 80
2020-03-02 09:00:00 6.9 19 Sudoeste 40 Sudoeste 0 919.8 3.9 80
2020-03-02 08:00:00 7.3 14 Oeste 50 Oeste 0 918.7 4.4 84
2020-03-02 07:00:00 7.5 22 Oeste 61 Sudoeste 2 917.3 3.9 86
2020-03-02 06:00:00 9.8 23 Oeste 71 Sudoeste 0 915.9 1.5 73
2020-03-02 05:00:00 11.4 31 Sudoeste 74 Sudoeste 0 914.3 -0.4 81
2020-03-02 04:00:00 11.3 32 Sudoeste 69 Sudoeste 0.5 913.4 -2.6 88
2020-03-02 03:00:00 10.5 34 Sur 67 Sudoeste 1.8 914.4 -1.9 90
2020-03-02 02:00:00 10.8 30 Sudoeste 75 Sudoeste 0.1 914.7 -3.4 82
2020-03-02 01:00:00 11.7 27 Sur 73 Sudoeste 0.1 916 -2.3 79
2020-03-02 00:00:00 11.5 32 Sudoeste 69 Sur 0.8 916.3 -3.2 81
2020-03-01 23:00:00 11.7 32 Sudoeste 62 Sudoeste 1.2 918.1 -2.3 85
2020-03-01 22:00:00 11.6 17 Sur 50 Sudoeste 0.1 918.3 -2.5 87
2020-03-01 21:00:00 11.8 24 Sudoeste 41 Sur 1.2 919.5 -1.8 86
2020-03-01 20:00:00 11.8 19 Sudoeste 43 Sudoeste 0.2 920.4 -1.9 77
2020-03-01 19:00:00 13.5 17 Sur 36 Sudoeste 0 920.8 -1.7 61
2020-03-01 18:00:00 14 16 Sudoeste 47 Sudoeste 0 921.3 -1.9 55
2020-03-01 17:00:00 15.2 24 Sudoeste 52 Sudoeste 0 922.3 -1.9 50
2020-03-01 16:00:00 15.6 21 Sudoeste 50 Sudoeste 0 922.5 -1.7 48
2020-03-01 15:00:00 15.1 23 Sudoeste 59 Sudoeste 0 923.2 -1.9 58
2020-03-01 14:00:00 15.8 25 Sudoeste 57 Sudoeste 0 924.2 -0.8 54
2020-03-01 13:00:00 14.7 25 Sudoeste 53 Sur 0 924.2 -0.4 61
2020-03-01 12:00:00 12.4 19 Sudoeste 46 Sudoeste 0 925.1 1 73
2020-03-01 11:00:00 12.5 22 Sudoeste 48 Sudoeste 0 925 1.2 74
2020-03-01 10:00:00 10.9 21 Sudoeste 50 Sur 0 924.6 0.7 78
2020-03-01 09:00:00 9.7 19 Sudoeste 41 Sudoeste 0 924.1 -0.1 77
2020-03-01 08:00:00 8.9 17 Sudoeste 46 Sudoeste 0 923.8 -0.1 82
2020-03-01 07:00:00 8.7 15 Sudoeste 35 Sur 0 923.9 -0.9 84
2020-03-01 06:00:00 8.3 12 Sur 36 Sur 0 924.2 -1.3 82
2020-03-01 05:00:00 7.6 15 Sur 34 Sudoeste 0 923.9 -1.9 87
2020-03-01 04:00:00 7.5 15 Sudoeste 39 Sudoeste 0 924.8 -1.1 89
2020-03-01 03:00:00 7.6 17 Sudoeste 29 Sur 0 925.5 -0.6 88
2020-03-01 02:00:00 8.1 14 Sudoeste 31 Sudoeste 0 925.8 -0.4 80
2020-03-01 01:00:00 8.1 14 Sudoeste 28 Sudoeste 0 925.9 0 79
2020-03-01 00:00:00 8 12 Sudoeste 26 Sur 0 926.1 0.3 78
2020-02-29 23:00:00 7.8 15 Sudoeste 41 Sudoeste 0 926.2 0.8 77
2020-02-29 22:00:00 8.7 15 Sudoeste 30 Sudoeste 0 925.9 0.6 70
2020-02-29 21:00:00 8 9 Sudoeste 26 Sudoeste 0 925.8 1 70
2020-02-29 20:00:00 8.5 13 Sudoeste 32 Sudoeste 0 925.4 0.7 69
2020-02-29 19:00:00 9.3 19 Sudoeste 41 Sudoeste 0 925.3 1 63
2020-02-29 18:00:00 10.6 18 Sudoeste 46 Sudoeste 0 924.8 1 59
2020-02-29 17:00:00 11.7 18 Sudoeste 50 Sudoeste 0 924.7 1 56
2020-02-29 16:00:00 12.9 20 Oeste 57 Sudoeste 0 924.3 0.7 56
2020-02-29 15:00:00 13 19 Sudoeste 51 Sudoeste 0 923.8 0.3 61
2020-02-29 14:00:00 12.4 20 Sudoeste 50 Sudoeste 0.1 923.7 0.6 81
2020-02-29 13:00:00 12.4 21 Sudoeste 47 Sudoeste 0 923.6 1.1 84
2020-02-29 12:00:00 11.4 18 Sur 46 Sudoeste 0 923.5 1.1 78
2020-02-29 11:00:00 10.8 20 Sur 46 Sur 0 923.1 0.3 79
2020-02-29 10:00:00 10.3 18 Sur 44 Sudoeste 0 922.5 -0.9 79
2020-02-29 09:00:00 8.2 16 Sur 34 Sur 0 922.4 -0.7 85
2020-02-29 08:00:00 6.4 9 Sur 26 Sur 0 922.8 -0.7 89
2020-02-29 07:00:00 6.2 10 Sur 34 Sur 0 923.4 -0.2 86
2020-02-29 06:00:00 6.7 9 Sur 17 Sudeste 0 923.1 -1 73
2020-02-29 05:00:00 8 6 Sudoeste 22 Sudoeste 0 923.5 -0.7 62
2020-02-29 04:00:00 9.2 10 Sudoeste 18 Oeste 0 923.6 -1.5 62
2020-02-29 03:00:00 9 9 Sudoeste 22 Sur 0 924.1 -1.8 69
2020-02-29 02:00:00 9.1 4 Sur 13 Sur 0 924.2 -2.5 71
2020-02-29 01:00:00 9.3 7 Sur 14 Sur 0 925.1 -1.6 69
2020-02-29 00:00:00 9.4 2 Sur 10 Sur 0 925.9 -1.1 69
2020-02-28 23:00:00 9.9 5 Sur 13 Sur 0 926.7 -0.7 65
2020-02-28 22:00:00 10.7 5 Sur 19 Sur 0 926.7 -0.5 56
2020-02-28 21:00:00 11.4 9 Sur 19 Sudoeste 0 927 -0.5 48
2020-02-28 20:00:00 13 8 Sur 15 Sur 0 927.4 -0.6 40
2020-02-28 19:00:00 15 6 Sudoeste 27 Sur 0 927.2 -1.4 34
2020-02-28 18:00:00 16.8 14 Sur 31 Sur 0 927.5 -1.7 31
2020-02-28 17:00:00 18.2 15 Sur 31 Sudoeste 0 928 -2.6 27
2020-02-28 16:00:00 18.8 15 Sur 29 Sur 0 928.6 -3.5 27
2020-02-28 15:00:00 19.5 12 Sur 22 Sur 0 929.2 -3.7 27
2020-02-28 14:00:00 17.9 2 Sudeste 10 Nordeste 0 930.6 -2.7 31
2020-02-28 13:00:00 15.1 3 Este 12 Este 0 932.1 -1.7 36
2020-02-28 12:00:00 12.4 3 Este 8 Sudeste 0 932.9 -1.1 50
2020-02-28 11:00:00 8.5 5 Este 11 Este 0 933.3 -0.6 69
2020-02-28 10:00:00 5.4 5 Sudeste 9 Este 0 933.8 -0.4 82
2020-02-28 09:00:00 2.2 4 Este 13 Nordeste 0 934 0.1 94
2020-02-28 08:00:00 1.9 4 Este 8 Este 0 933.9 -0.4 95
2020-02-28 07:00:00 2.4 0 Calma 9 Este 0 934.2 -0.7 95
2020-02-28 06:00:00 2.7 3 Este 7 Este 0 933.9 -1.6 94
2020-02-28 05:00:00 2.9 5 Este 8 Este 0 934.3 -1.5 92
2020-02-28 04:00:00 3.9 2 Este 7 Este 0 934.9 -1.1 90
2020-02-28 03:00:00 5.1 4 Este 8 Este 0 935.5 -0.6 86
2020-02-28 02:00:00 6.5 0 Calma 13 Sudoeste 0 935.8 -0.3 81
2020-02-28 01:00:00 7.3 6 Sur 14 Sur 0 936 -0.1 77
2020-02-28 00:00:00 8.2 6 Oeste 15 Oeste 0 936.1 0.5 73